Aérodrome :
LOGIN :

S'inscrire | Disclaimer

   EN    FR    IT 

 










Légende :    VFR   VFR Marginal   IFR   IFR Intensif   IFR Très Intensif
Visi : 
Plafond : 
>= 8 km
>= 3000ft
5 à 8 km
1000 à 3000 ft
1500m à 5 km
500 à 1000 ft
800 à 1500m
200 à 500 ft
< 800m
< 200 ft
Symboles :   Orages  Brouillard  Fortes neiges  Fortes précipitations  Vent > 20 kt
SIGMETs :   Divers  Orages  Givrage  Turbulence  Onde Orograph.  Cendres Volcan.






- Altitude de l'aérodrome : 52 ft
- Code IATA : IOM


EGNS - Isle of Man

DERNIER METAR :
  • 280720Z 23008KT 4500 RA SCT005 SCT014 OVC022 13/13 Q0999 TEMPO 3000 +RA

METARs EXPIRÉS :
  • 280650Z 22009KT 5000 RA BKN004 BKN015 OVC033 14/14 Q0999 TEMPO 3000 +RA
  • 280620Z 24006KT 6000 RA BKN003 OVC018 14/14 Q0999 TEMPO 4000
  • 280550Z 26005KT 9999 -RA FEW010 BKN018 14/14 Q0999 TEMPO 6000 RA BKN010
  • 280520Z 25013KT 6000 RA FEW007 BKN010 BKN018 14/14 Q0999 TEMPO 4500 +RA BKN007
  • 280450Z 21021KT 4500 +RA FEW004 BKN007 15/15 Q0999 TEMPO 6000 RA

TAF AMD TAF EGNS
Valide du 28 à 06h jusqu'au 28 à 15h UTC


280540Z 2806/2815 25010KT 9999 -RA FEW010 BKN025
TEMPO 2806/2815 6000 RA BKN010
PROB30
TEMPO 2806/2815 21020G30KT 4000 +RA BKN005



MET'MAP, la Météo Aéronautique d'un coup d'oeil ! - Copyright ORBIFLY Décembre 2007 - Disclaimer

ORBIFLY MET'MAP TEAM :

Programmation & Développement : Alexandra Zaïnal
Sur une idée originale de : Baudouin d'Aumeries
Assistance à la programmation : Marc-Olivier Méhu
Soutien technique & logistique : Manuel Goepfert

Contact : metmap@orbifly.com




SOURCES & CREDITS :

   NOAA